sensor_id;sensor_type;location;lat;lon;timestamp;P1;durP1;ratioP1;P2;durP2;ratioP2
16977;SDS011;8605;52.548;4.918;2024-03-08T00:00:13;62.70;;;31.53;;
16977;SDS011;8605;52.548;4.918;2024-03-08T00:02:43;69.43;;;33.10;;
16977;SDS011;8605;52.548;4.918;2024-03-08T00:05:13;65.50;;;32.33;;
16977;SDS011;8605;52.548;4.918;2024-03-08T00:07:41;61.27;;;32.03;;
16977;SDS011;8605;52.548;4.918;2024-03-08T00:10:11;60.30;;;32.43;;
16977;SDS011;8605;52.548;4.918;2024-03-08T00:12:43;62.93;;;33.07;;
16977;SDS011;8605;52.548;4.918;2024-03-08T00:15:14;64.90;;;32.73;;
16977;SDS011;8605;52.548;4.918;2024-03-08T00:17:45;63.00;;;32.37;;
16977;SDS011;8605;52.548;4.918;2024-03-08T00:20:14;65.63;;;31.70;;
16977;SDS011;8605;52.548;4.918;2024-03-08T00:22:44;59.60;;;32.40;;
16977;SDS011;8605;52.548;4.918;2024-03-08T00:25:12;65.77;;;32.60;;
16977;SDS011;8605;52.548;4.918;2024-03-08T00:27:40;59.63;;;32.40;;
16977;SDS011;8605;52.548;4.918;2024-03-08T00:30:09;64.83;;;32.77;;
16977;SDS011;8605;52.548;4.918;2024-03-08T00:32:41;64.53;;;31.93;;
16977;SDS011;8605;52.548;4.918;2024-03-08T00:35:09;62.93;;;30.90;;
16977;SDS011;8605;52.548;4.918;2024-03-08T00:37:38;59.13;;;31.77;;
16977;SDS011;8605;52.548;4.918;2024-03-08T00:40:07;61.20;;;32.23;;
16977;SDS011;8605;52.548;4.918;2024-03-08T00:42:36;60.30;;;31.53;;
16977;SDS011;8605;52.548;4.918;2024-03-08T00:45:05;59.57;;;30.83;;
16977;SDS011;8605;52.548;4.918;2024-03-08T00:47:33;61.70;;;32.43;;
16977;SDS011;8605;52.548;4.918;2024-03-08T00:50:02;59.47;;;31.10;;
16977;SDS011;8605;52.548;4.918;2024-03-08T00:52:31;62.63;;;30.87;;
16977;SDS011;8605;52.548;4.918;2024-03-08T00:55:01;59.73;;;31.80;;
16977;SDS011;8605;52.548;4.918;2024-03-08T00:57:29;56.33;;;30.20;;
16977;SDS011;8605;52.548;4.918;2024-03-08T00:59:57;57.37;;;30.90;;
16977;SDS011;8605;52.548;4.918;2024-03-08T01:02:25;60.53;;;31.33;;
16977;SDS011;8605;52.548;4.918;2024-03-08T01:04:53;62.57;;;31.47;;
16977;SDS011;8605;52.548;4.918;2024-03-08T01:07:22;55.40;;;30.77;;
16977;SDS011;8605;52.548;4.918;2024-03-08T01:09:49;59.30;;;30.57;;
16977;SDS011;8605;52.548;4.918;2024-03-08T01:12:17;52.00;;;30.03;;
16977;SDS011;8605;52.548;4.918;2024-03-08T01:14:46;54.33;;;29.93;;
16977;SDS011;8605;52.548;4.918;2024-03-08T01:17:14;54.80;;;30.03;;
16977;SDS011;8605;52.548;4.918;2024-03-08T01:19:41;54.20;;;29.87;;
16977;SDS011;8605;52.548;4.918;2024-03-08T01:22:11;57.20;;;30.23;;
16977;SDS011;8605;52.548;4.918;2024-03-08T01:24:40;59.13;;;31.57;;
16977;SDS011;8605;52.548;4.918;2024-03-08T01:27:07;57.77;;;31.70;;
16977;SDS011;8605;52.548;4.918;2024-03-08T01:29:35;53.67;;;29.93;;
16977;SDS011;8605;52.548;4.918;2024-03-08T01:32:04;54.27;;;29.83;;
16977;SDS011;8605;52.548;4.918;2024-03-08T01:34:32;55.57;;;30.37;;
16977;SDS011;8605;52.548;4.918;2024-03-08T01:37:00;52.03;;;29.87;;
16977;SDS011;8605;52.548;4.918;2024-03-08T01:39:28;53.60;;;31.17;;
16977;SDS011;8605;52.548;4.918;2024-03-08T01:41:57;58.53;;;32.33;;
16977;SDS011;8605;52.548;4.918;2024-03-08T01:44:25;52.77;;;29.43;;
16977;SDS011;8605;52.548;4.918;2024-03-08T01:46:52;57.70;;;31.47;;
16977;SDS011;8605;52.548;4.918;2024-03-08T01:49:21;57.33;;;31.10;;
16977;SDS011;8605;52.548;4.918;2024-03-08T01:51:50;61.67;;;31.87;;
16977;SDS011;8605;52.548;4.918;2024-03-08T01:54:18;58.97;;;32.03;;
16977;SDS011;8605;52.548;4.918;2024-03-08T01:56:46;61.77;;;32.57;;
16977;SDS011;8605;52.548;4.918;2024-03-08T01:59:17;61.37;;;32.07;;
16977;SDS011;8605;52.548;4.918;2024-03-08T02:01:45;60.87;;;32.37;;
16977;SDS011;8605;52.548;4.918;2024-03-08T02:04:14;56.33;;;32.43;;
16977;SDS011;8605;52.548;4.918;2024-03-08T02:06:42;62.43;;;32.17;;
16977;SDS011;8605;52.548;4.918;2024-03-08T02:09:11;58.97;;;32.43;;
16977;SDS011;8605;52.548;4.918;2024-03-08T02:11:39;56.93;;;32.17;;
16977;SDS011;8605;52.548;4.918;2024-03-08T02:14:08;58.50;;;33.00;;
16977;SDS011;8605;52.548;4.918;2024-03-08T02:16:39;61.23;;;33.70;;
16977;SDS011;8605;52.548;4.918;2024-03-08T02:19:06;57.57;;;33.40;;
16977;SDS011;8605;52.548;4.918;2024-03-08T02:21:37;62.57;;;33.37;;
16977;SDS011;8605;52.548;4.918;2024-03-08T02:24:05;61.43;;;33.00;;
16977;SDS011;8605;52.548;4.918;2024-03-08T02:26:33;63.03;;;33.07;;
16977;SDS011;8605;52.548;4.918;2024-03-08T02:29:01;61.47;;;33.13;;
16977;SDS011;8605;52.548;4.918;2024-03-08T02:31:29;60.17;;;33.67;;
16977;SDS011;8605;52.548;4.918;2024-03-08T02:33:57;64.83;;;33.63;;
16977;SDS011;8605;52.548;4.918;2024-03-08T02:36:25;62.23;;;34.27;;
16977;SDS011;8605;52.548;4.918;2024-03-08T02:38:55;63.30;;;34.47;;
16977;SDS011;8605;52.548;4.918;2024-03-08T02:41:22;62.13;;;33.97;;
16977;SDS011;8605;52.548;4.918;2024-03-08T02:43:50;62.47;;;33.37;;
16977;SDS011;8605;52.548;4.918;2024-03-08T02:46:18;60.87;;;33.03;;
16977;SDS011;8605;52.548;4.918;2024-03-08T02:48:47;62.27;;;33.73;;
16977;SDS011;8605;52.548;4.918;2024-03-08T02:51:15;60.07;;;34.30;;
16977;SDS011;8605;52.548;4.918;2024-03-08T02:53:43;58.93;;;32.47;;
16977;SDS011;8605;52.548;4.918;2024-03-08T02:56:12;62.00;;;33.80;;
16977;SDS011;8605;52.548;4.918;2024-03-08T02:58:42;64.23;;;34.37;;
16977;SDS011;8605;52.548;4.918;2024-03-08T03:01:14;63.50;;;33.70;;
16977;SDS011;8605;52.548;4.918;2024-03-08T03:03:42;60.57;;;33.83;;
16977;SDS011;8605;52.548;4.918;2024-03-08T03:06:10;62.33;;;33.40;;
16977;SDS011;8605;52.548;4.918;2024-03-08T03:08:38;66.33;;;33.67;;
16977;SDS011;8605;52.548;4.918;2024-03-08T03:11:10;60.07;;;34.30;;
16977;SDS011;8605;52.548;4.918;2024-03-08T03:13:41;62.97;;;34.77;;
16977;SDS011;8605;52.548;4.918;2024-03-08T03:16:16;64.63;;;35.23;;
16977;SDS011;8605;52.548;4.918;2024-03-08T03:18:45;61.97;;;34.43;;
16977;SDS011;8605;52.548;4.918;2024-03-08T03:21:14;63.43;;;34.40;;
16977;SDS011;8605;52.548;4.918;2024-03-08T03:23:43;61.83;;;35.00;;
16977;SDS011;8605;52.548;4.918;2024-03-08T03:26:11;67.93;;;35.97;;
16977;SDS011;8605;52.548;4.918;2024-03-08T03:28:40;62.13;;;35.27;;
16977;SDS011;8605;52.548;4.918;2024-03-08T03:31:09;64.93;;;34.77;;
16977;SDS011;8605;52.548;4.918;2024-03-08T03:33:40;66.30;;;36.30;;
16977;SDS011;8605;52.548;4.918;2024-03-08T03:36:08;65.00;;;35.90;;
16977;SDS011;8605;52.548;4.918;2024-03-08T03:38:36;67.63;;;36.77;;
16977;SDS011;8605;52.548;4.918;2024-03-08T03:41:04;66.37;;;36.20;;
16977;SDS011;8605;52.548;4.918;2024-03-08T03:43:36;64.10;;;35.37;;
16977;SDS011;8605;52.548;4.918;2024-03-08T03:46:06;66.73;;;36.37;;
16977;SDS011;8605;52.548;4.918;2024-03-08T03:48:37;69.03;;;35.87;;
16977;SDS011;8605;52.548;4.918;2024-03-08T03:51:05;65.33;;;35.43;;
16977;SDS011;8605;52.548;4.918;2024-03-08T03:53:33;59.17;;;34.23;;
16977;SDS011;8605;52.548;4.918;2024-03-08T03:56:01;61.67;;;34.27;;
16977;SDS011;8605;52.548;4.918;2024-03-08T03:58:33;66.37;;;35.83;;
16977;SDS011;8605;52.548;4.918;2024-03-08T04:01:00;65.53;;;34.67;;
16977;SDS011;8605;52.548;4.918;2024-03-08T04:03:30;62.90;;;35.77;;
16977;SDS011;8605;52.548;4.918;2024-03-08T04:05:57;60.83;;;34.83;;
16977;SDS011;8605;52.548;4.918;2024-03-08T04:08:25;66.33;;;34.67;;
16977;SDS011;8605;52.548;4.918;2024-03-08T04:10:53;67.57;;;36.70;;
16977;SDS011;8605;52.548;4.918;2024-03-08T04:13:20;62.53;;;36.63;;
16977;SDS011;8605;52.548;4.918;2024-03-08T04:15:48;65.73;;;35.97;;
16977;SDS011;8605;52.548;4.918;2024-03-08T04:18:16;68.00;;;36.30;;
16977;SDS011;8605;52.548;4.918;2024-03-08T04:20:46;66.37;;;37.37;;
16977;SDS011;8605;52.548;4.918;2024-03-08T04:23:14;67.03;;;36.87;;
16977;SDS011;8605;52.548;4.918;2024-03-08T04:25:42;70.57;;;37.10;;
16977;SDS011;8605;52.548;4.918;2024-03-08T04:28:10;65.67;;;37.77;;
16977;SDS011;8605;52.548;4.918;2024-03-08T04:30:39;67.80;;;36.67;;
16977;SDS011;8605;52.548;4.918;2024-03-08T04:33:06;68.90;;;37.43;;
16977;SDS011;8605;52.548;4.918;2024-03-08T04:35:35;68.40;;;37.50;;
16977;SDS011;8605;52.548;4.918;2024-03-08T04:38:04;69.50;;;36.50;;
16977;SDS011;8605;52.548;4.918;2024-03-08T04:40:32;68.33;;;39.13;;
16977;SDS011;8605;52.548;4.918;2024-03-08T04:43:00;66.97;;;36.47;;
16977;SDS011;8605;52.548;4.918;2024-03-08T04:45:28;76.23;;;39.13;;
16977;SDS011;8605;52.548;4.918;2024-03-08T04:47:56;65.83;;;36.87;;
16977;SDS011;8605;52.548;4.918;2024-03-08T04:50:24;63.33;;;37.47;;
16977;SDS011;8605;52.548;4.918;2024-03-08T04:52:55;68.90;;;37.70;;
16977;SDS011;8605;52.548;4.918;2024-03-08T04:55:25;68.57;;;38.70;;
16977;SDS011;8605;52.548;4.918;2024-03-08T04:57:53;67.17;;;37.13;;
16977;SDS011;8605;52.548;4.918;2024-03-08T05:00:42;73.17;;;38.30;;
16977;SDS011;8605;52.548;4.918;2024-03-08T05:03:10;73.17;;;38.23;;
16977;SDS011;8605;52.548;4.918;2024-03-08T05:05:37;74.90;;;39.57;;
16977;SDS011;8605;52.548;4.918;2024-03-08T05:08:05;66.20;;;37.30;;
16977;SDS011;8605;52.548;4.918;2024-03-08T05:10:35;71.80;;;37.37;;
16977;SDS011;8605;52.548;4.918;2024-03-08T05:13:02;71.77;;;37.70;;
16977;SDS011;8605;52.548;4.918;2024-03-08T05:15:30;76.57;;;39.83;;
16977;SDS011;8605;52.548;4.918;2024-03-08T05:18:01;68.00;;;38.70;;
16977;SDS011;8605;52.548;4.918;2024-03-08T05:20:29;68.03;;;37.83;;
16977;SDS011;8605;52.548;4.918;2024-03-08T05:22:57;71.23;;;38.53;;
16977;SDS011;8605;52.548;4.918;2024-03-08T05:25:26;72.70;;;40.90;;
16977;SDS011;8605;52.548;4.918;2024-03-08T05:27:55;69.23;;;38.67;;
16977;SDS011;8605;52.548;4.918;2024-03-08T05:30:24;69.40;;;38.23;;
16977;SDS011;8605;52.548;4.918;2024-03-08T05:32:52;70.30;;;38.37;;
16977;SDS011;8605;52.548;4.918;2024-03-08T05:35:20;71.93;;;39.67;;
16977;SDS011;8605;52.548;4.918;2024-03-08T05:37:47;73.27;;;39.07;;
16977;SDS011;8605;52.548;4.918;2024-03-08T05:40:15;71.37;;;39.77;;
16977;SDS011;8605;52.548;4.918;2024-03-08T05:42:46;69.37;;;39.20;;
16977;SDS011;8605;52.548;4.918;2024-03-08T05:45:15;69.20;;;37.73;;
16977;SDS011;8605;52.548;4.918;2024-03-08T05:47:43;75.90;;;40.40;;
16977;SDS011;8605;52.548;4.918;2024-03-08T05:50:11;77.37;;;40.17;;
16977;SDS011;8605;52.548;4.918;2024-03-08T05:52:39;74.03;;;40.30;;
16977;SDS011;8605;52.548;4.918;2024-03-08T05:55:07;72.17;;;39.50;;
16977;SDS011;8605;52.548;4.918;2024-03-08T05:57:36;70.37;;;39.67;;
16977;SDS011;8605;52.548;4.918;2024-03-08T06:00:06;73.47;;;40.30;;
16977;SDS011;8605;52.548;4.918;2024-03-08T06:02:38;77.97;;;40.83;;
16977;SDS011;8605;52.548;4.918;2024-03-08T06:05:08;73.90;;;39.53;;
16977;SDS011;8605;52.548;4.918;2024-03-08T06:07:36;76.17;;;41.30;;
16977;SDS011;8605;52.548;4.918;2024-03-08T06:10:07;81.03;;;41.73;;
16977;SDS011;8605;52.548;4.918;2024-03-08T06:12:37;77.20;;;41.47;;
16977;SDS011;8605;52.548;4.918;2024-03-08T06:15:07;70.13;;;40.57;;
16977;SDS011;8605;52.548;4.918;2024-03-08T06:17:36;80.33;;;42.77;;
16977;SDS011;8605;52.548;4.918;2024-03-08T06:20:06;78.83;;;41.47;;
16977;SDS011;8605;52.548;4.918;2024-03-08T06:22:37;80.57;;;41.90;;
16977;SDS011;8605;52.548;4.918;2024-03-08T06:25:07;73.10;;;41.10;;
16977;SDS011;8605;52.548;4.918;2024-03-08T06:27:36;76.63;;;41.37;;
16977;SDS011;8605;52.548;4.918;2024-03-08T06:30:04;78.27;;;40.37;;
16977;SDS011;8605;52.548;4.918;2024-03-08T06:32:33;73.87;;;39.60;;
16977;SDS011;8605;52.548;4.918;2024-03-08T06:35:03;76.03;;;41.73;;
16977;SDS011;8605;52.548;4.918;2024-03-08T06:37:32;77.43;;;42.20;;
16977;SDS011;8605;52.548;4.918;2024-03-08T06:40:00;75.83;;;39.63;;
16977;SDS011;8605;52.548;4.918;2024-03-08T06:42:29;76.63;;;41.97;;
16977;SDS011;8605;52.548;4.918;2024-03-08T06:45:00;78.03;;;42.03;;
16977;SDS011;8605;52.548;4.918;2024-03-08T06:47:31;75.90;;;41.00;;
16977;SDS011;8605;52.548;4.918;2024-03-08T06:50:00;72.73;;;40.20;;
16977;SDS011;8605;52.548;4.918;2024-03-08T06:52:29;75.67;;;41.77;;
16977;SDS011;8605;52.548;4.918;2024-03-08T06:54:57;72.00;;;40.00;;
16977;SDS011;8605;52.548;4.918;2024-03-08T06:57:25;75.83;;;40.40;;
16977;SDS011;8605;52.548;4.918;2024-03-08T06:59:53;77.43;;;40.67;;
16977;SDS011;8605;52.548;4.918;2024-03-08T07:02:21;68.50;;;38.40;;
16977;SDS011;8605;52.548;4.918;2024-03-08T07:04:51;71.63;;;40.53;;
16977;SDS011;8605;52.548;4.918;2024-03-08T07:07:19;75.67;;;42.20;;
16977;SDS011;8605;52.548;4.918;2024-03-08T07:09:49;72.93;;;40.40;;
16977;SDS011;8605;52.548;4.918;2024-03-08T07:12:19;76.67;;;42.70;;
16977;SDS011;8605;52.548;4.918;2024-03-08T07:14:49;70.77;;;40.80;;
16977;SDS011;8605;52.548;4.918;2024-03-08T07:17:17;74.23;;;42.60;;
16977;SDS011;8605;52.548;4.918;2024-03-08T07:19:45;77.87;;;43.03;;
16977;SDS011;8605;52.548;4.918;2024-03-08T07:22:16;73.43;;;39.80;;
16977;SDS011;8605;52.548;4.918;2024-03-08T07:24:43;74.23;;;40.10;;
16977;SDS011;8605;52.548;4.918;2024-03-08T07:27:32;73.93;;;42.83;;
16977;SDS011;8605;52.548;4.918;2024-03-08T07:30:00;75.13;;;42.60;;
16977;SDS011;8605;52.548;4.918;2024-03-08T07:32:31;84.13;;;43.60;;
16977;SDS011;8605;52.548;4.918;2024-03-08T07:35:01;74.40;;;41.70;;
16977;SDS011;8605;52.548;4.918;2024-03-08T07:37:30;73.63;;;41.43;;
16977;SDS011;8605;52.548;4.918;2024-03-08T07:39:57;71.40;;;41.03;;
16977;SDS011;8605;52.548;4.918;2024-03-08T07:42:25;74.07;;;41.60;;
16977;SDS011;8605;52.548;4.918;2024-03-08T07:44:56;76.00;;;41.43;;
16977;SDS011;8605;52.548;4.918;2024-03-08T07:47:24;72.73;;;41.37;;
16977;SDS011;8605;52.548;4.918;2024-03-08T07:49:52;71.83;;;41.23;;
16977;SDS011;8605;52.548;4.918;2024-03-08T07:52:20;70.67;;;40.23;;
16977;SDS011;8605;52.548;4.918;2024-03-08T07:54:48;75.47;;;41.70;;
16977;SDS011;8605;52.548;4.918;2024-03-08T07:57:16;70.37;;;39.90;;
16977;SDS011;8605;52.548;4.918;2024-03-08T07:59:44;70.63;;;40.23;;
16977;SDS011;8605;52.548;4.918;2024-03-08T08:02:13;68.63;;;40.43;;
16977;SDS011;8605;52.548;4.918;2024-03-08T08:04:41;68.47;;;40.43;;
16977;SDS011;8605;52.548;4.918;2024-03-08T08:07:11;72.40;;;40.97;;
16977;SDS011;8605;52.548;4.918;2024-03-08T08:09:39;66.60;;;40.57;;
16977;SDS011;8605;52.548;4.918;2024-03-08T08:12:08;69.27;;;39.77;;
16977;SDS011;8605;52.548;4.918;2024-03-08T08:14:38;65.13;;;39.87;;
16977;SDS011;8605;52.548;4.918;2024-03-08T08:17:07;75.07;;;41.37;;
16977;SDS011;8605;52.548;4.918;2024-03-08T08:19:37;72.73;;;40.93;;
16977;SDS011;8605;52.548;4.918;2024-03-08T08:22:04;67.23;;;40.97;;
16977;SDS011;8605;52.548;4.918;2024-03-08T08:24:35;67.97;;;40.50;;
16977;SDS011;8605;52.548;4.918;2024-03-08T08:27:04;67.27;;;40.50;;
16977;SDS011;8605;52.548;4.918;2024-03-08T08:29:32;65.90;;;39.27;;
16977;SDS011;8605;52.548;4.918;2024-03-08T08:32:00;65.70;;;38.90;;
16977;SDS011;8605;52.548;4.918;2024-03-08T08:34:29;70.40;;;39.90;;
16977;SDS011;8605;52.548;4.918;2024-03-08T08:36:59;65.37;;;38.43;;
16977;SDS011;8605;52.548;4.918;2024-03-08T08:39:27;68.53;;;39.77;;
16977;SDS011;8605;52.548;4.918;2024-03-08T08:41:54;66.20;;;39.07;;
16977;SDS011;8605;52.548;4.918;2024-03-08T08:44:22;67.73;;;39.13;;
16977;SDS011;8605;52.548;4.918;2024-03-08T08:46:51;64.67;;;38.77;;
16977;SDS011;8605;52.548;4.918;2024-03-08T08:49:28;66.60;;;40.57;;
16977;SDS011;8605;52.548;4.918;2024-03-08T08:51:58;68.13;;;39.43;;
16977;SDS011;8605;52.548;4.918;2024-03-08T08:54:37;66.60;;;39.10;;
16977;SDS011;8605;52.548;4.918;2024-03-08T08:57:05;62.73;;;38.53;;
16977;SDS011;8605;52.548;4.918;2024-03-08T08:59:34;66.63;;;39.37;;
16977;SDS011;8605;52.548;4.918;2024-03-08T09:02:02;69.40;;;38.63;;
16977;SDS011;8605;52.548;4.918;2024-03-08T09:04:30;63.57;;;38.03;;
16977;SDS011;8605;52.548;4.918;2024-03-08T09:06:59;67.47;;;40.83;;
16977;SDS011;8605;52.548;4.918;2024-03-08T09:09:27;61.60;;;38.23;;
16977;SDS011;8605;52.548;4.918;2024-03-08T09:11:55;69.27;;;40.30;;
16977;SDS011;8605;52.548;4.918;2024-03-08T09:14:23;63.80;;;37.47;;
16977;SDS011;8605;52.548;4.918;2024-03-08T09:16:52;63.43;;;37.93;;
16977;SDS011;8605;52.548;4.918;2024-03-08T09:19:20;64.80;;;39.47;;
16977;SDS011;8605;52.548;4.918;2024-03-08T09:21:49;66.50;;;40.03;;
16977;SDS011;8605;52.548;4.918;2024-03-08T09:24:19;66.47;;;37.53;;
16977;SDS011;8605;52.548;4.918;2024-03-08T09:26:46;60.97;;;37.90;;
16977;SDS011;8605;52.548;4.918;2024-03-08T09:29:14;66.50;;;38.57;;
16977;SDS011;8605;52.548;4.918;2024-03-08T09:31:42;67.67;;;38.17;;
16977;SDS011;8605;52.548;4.918;2024-03-08T09:34:12;67.37;;;37.83;;
16977;SDS011;8605;52.548;4.918;2024-03-08T09:37:02;59.57;;;37.70;;
16977;SDS011;8605;52.548;4.918;2024-03-08T09:39:32;63.20;;;38.00;;
16977;SDS011;8605;52.548;4.918;2024-03-08T09:42:00;64.60;;;37.47;;
16977;SDS011;8605;52.548;4.918;2024-03-08T09:44:28;66.37;;;38.30;;
16977;SDS011;8605;52.548;4.918;2024-03-08T09:46:56;62.40;;;36.37;;
16977;SDS011;8605;52.548;4.918;2024-03-08T09:49:25;67.23;;;38.30;;
16977;SDS011;8605;52.548;4.918;2024-03-08T09:51:53;63.30;;;38.60;;
16977;SDS011;8605;52.548;4.918;2024-03-08T09:54:22;65.07;;;38.47;;
16977;SDS011;8605;52.548;4.918;2024-03-08T09:56:52;64.03;;;37.70;;
16977;SDS011;8605;52.548;4.918;2024-03-08T09:59:20;63.40;;;38.47;;
16977;SDS011;8605;52.548;4.918;2024-03-08T10:02:12;66.63;;;37.40;;
16977;SDS011;8605;52.548;4.918;2024-03-08T10:04:42;61.90;;;37.73;;
16977;SDS011;8605;52.548;4.918;2024-03-08T10:07:13;64.07;;;38.07;;
16977;SDS011;8605;52.548;4.918;2024-03-08T10:09:40;63.57;;;37.43;;
16977;SDS011;8605;52.548;4.918;2024-03-08T10:12:15;64.37;;;38.30;;
16977;SDS011;8605;52.548;4.918;2024-03-08T10:14:43;62.10;;;37.50;;
16977;SDS011;8605;52.548;4.918;2024-03-08T10:17:11;61.27;;;37.00;;
16977;SDS011;8605;52.548;4.918;2024-03-08T10:19:39;59.97;;;36.13;;
16977;SDS011;8605;52.548;4.918;2024-03-08T10:22:17;59.53;;;35.80;;
16977;SDS011;8605;52.548;4.918;2024-03-08T10:24:46;64.03;;;36.40;;
16977;SDS011;8605;52.548;4.918;2024-03-08T10:27:15;63.27;;;37.77;;
16977;SDS011;8605;52.548;4.918;2024-03-08T10:29:47;64.30;;;36.73;;
16977;SDS011;8605;52.548;4.918;2024-03-08T10:32:18;60.60;;;37.27;;
16977;SDS011;8605;52.548;4.918;2024-03-08T10:34:46;63.43;;;38.47;;
16977;SDS011;8605;52.548;4.918;2024-03-08T10:37:16;59.17;;;36.73;;
16977;SDS011;8605;52.548;4.918;2024-03-08T10:39:53;62.80;;;37.67;;
16977;SDS011;8605;52.548;4.918;2024-03-08T10:42:38;62.13;;;36.67;;
16977;SDS011;8605;52.548;4.918;2024-03-08T10:45:10;59.90;;;37.67;;
16977;SDS011;8605;52.548;4.918;2024-03-08T10:47:42;61.10;;;37.00;;
16977;SDS011;8605;52.548;4.918;2024-03-08T10:50:17;65.23;;;36.90;;
16977;SDS011;8605;52.548;4.918;2024-03-08T10:52:48;63.10;;;36.23;;
16977;SDS011;8605;52.548;4.918;2024-03-08T10:55:40;62.97;;;35.43;;
16977;SDS011;8605;52.548;4.918;2024-03-08T10:58:10;62.00;;;37.40;;
16977;SDS011;8605;52.548;4.918;2024-03-08T11:00:38;59.70;;;35.80;;
16977;SDS011;8605;52.548;4.918;2024-03-08T11:03:07;59.03;;;36.37;;
16977;SDS011;8605;52.548;4.918;2024-03-08T11:06:16;61.00;;;35.43;;
16977;SDS011;8605;52.548;4.918;2024-03-08T11:08:48;58.73;;;36.10;;
16977;SDS011;8605;52.548;4.918;2024-03-08T11:11:23;59.80;;;35.67;;
16977;SDS011;8605;52.548;4.918;2024-03-08T11:14:01;57.23;;;35.27;;
16977;SDS011;8605;52.548;4.918;2024-03-08T11:16:38;63.83;;;36.23;;
16977;SDS011;8605;52.548;4.918;2024-03-08T11:19:25;59.87;;;36.13;;
16977;SDS011;8605;52.548;4.918;2024-03-08T11:21:58;62.60;;;36.23;;
16977;SDS011;8605;52.548;4.918;2024-03-08T11:24:26;59.43;;;35.87;;
16977;SDS011;8605;52.548;4.918;2024-03-08T11:26:56;61.10;;;35.43;;
16977;SDS011;8605;52.548;4.918;2024-03-08T11:29:34;60.40;;;37.60;;
16977;SDS011;8605;52.548;4.918;2024-03-08T11:32:10;67.30;;;36.93;;
16977;SDS011;8605;52.548;4.918;2024-03-08T11:34:40;62.33;;;36.87;;
16977;SDS011;8605;52.548;4.918;2024-03-08T11:37:11;59.23;;;35.27;;
16977;SDS011;8605;52.548;4.918;2024-03-08T11:39:45;60.50;;;36.23;;
16977;SDS011;8605;52.548;4.918;2024-03-08T11:42:14;61.93;;;36.40;;
16977;SDS011;8605;52.548;4.918;2024-03-08T11:44:45;60.80;;;35.90;;
16977;SDS011;8605;52.548;4.918;2024-03-08T11:47:14;66.77;;;38.70;;
16977;SDS011;8605;52.548;4.918;2024-03-08T11:49:43;65.03;;;36.77;;
16977;SDS011;8605;52.548;4.918;2024-03-08T11:52:11;68.00;;;38.40;;
16977;SDS011;8605;52.548;4.918;2024-03-08T11:54:40;62.87;;;38.13;;
16977;SDS011;8605;52.548;4.918;2024-03-08T11:57:09;62.40;;;37.70;;
16977;SDS011;8605;52.548;4.918;2024-03-08T11:59:37;65.20;;;38.80;;
16977;SDS011;8605;52.548;4.918;2024-03-08T12:02:06;61.23;;;36.17;;
16977;SDS011;8605;52.548;4.918;2024-03-08T12:04:36;61.97;;;37.37;;
16977;SDS011;8605;52.548;4.918;2024-03-08T12:07:04;61.70;;;37.40;;
16977;SDS011;8605;52.548;4.918;2024-03-08T12:09:35;64.63;;;37.33;;
16977;SDS011;8605;52.548;4.918;2024-03-08T12:12:04;62.37;;;36.67;;
16977;SDS011;8605;52.548;4.918;2024-03-08T12:14:34;71.07;;;38.30;;
16977;SDS011;8605;52.548;4.918;2024-03-08T12:17:03;62.93;;;37.97;;
16977;SDS011;8605;52.548;4.918;2024-03-08T12:19:33;66.53;;;38.47;;
16977;SDS011;8605;52.548;4.918;2024-03-08T12:22:07;67.67;;;37.93;;
16977;SDS011;8605;52.548;4.918;2024-03-08T12:24:36;62.97;;;37.77;;
16977;SDS011;8605;52.548;4.918;2024-03-08T12:27:17;65.23;;;35.80;;
16977;SDS011;8605;52.548;4.918;2024-03-08T12:29:45;62.03;;;37.30;;
16977;SDS011;8605;52.548;4.918;2024-03-08T12:32:13;62.40;;;38.70;;
16977;SDS011;8605;52.548;4.918;2024-03-08T12:34:42;61.17;;;36.87;;
16977;SDS011;8605;52.548;4.918;2024-03-08T12:37:12;62.37;;;36.50;;
16977;SDS011;8605;52.548;4.918;2024-03-08T12:39:40;61.10;;;35.40;;
16977;SDS011;8605;52.548;4.918;2024-03-08T12:42:12;58.90;;;36.37;;
16977;SDS011;8605;52.548;4.918;2024-03-08T12:44:42;59.90;;;35.90;;
16977;SDS011;8605;52.548;4.918;2024-03-08T12:47:09;59.53;;;35.87;;
16977;SDS011;8605;52.548;4.918;2024-03-08T12:49:37;60.60;;;37.23;;
16977;SDS011;8605;52.548;4.918;2024-03-08T12:52:08;58.30;;;34.70;;
16977;SDS011;8605;52.548;4.918;2024-03-08T12:54:38;61.13;;;37.10;;
16977;SDS011;8605;52.548;4.918;2024-03-08T12:57:05;61.63;;;37.23;;
16977;SDS011;8605;52.548;4.918;2024-03-08T12:59:34;61.10;;;36.93;;
16977;SDS011;8605;52.548;4.918;2024-03-08T13:02:02;59.00;;;37.00;;
16977;SDS011;8605;52.548;4.918;2024-03-08T13:04:29;61.30;;;36.87;;
16977;SDS011;8605;52.548;4.918;2024-03-08T13:06:58;61.57;;;35.83;;
16977;SDS011;8605;52.548;4.918;2024-03-08T13:09:29;59.27;;;34.30;;
16977;SDS011;8605;52.548;4.918;2024-03-08T13:11:58;60.47;;;36.53;;
16977;SDS011;8605;52.548;4.918;2024-03-08T13:14:27;63.07;;;35.23;;
16977;SDS011;8605;52.548;4.918;2024-03-08T13:16:58;62.87;;;35.97;;
16977;SDS011;8605;52.548;4.918;2024-03-08T13:19:26;56.97;;;35.77;;
16977;SDS011;8605;52.548;4.918;2024-03-08T13:21:54;56.37;;;35.77;;
16977;SDS011;8605;52.548;4.918;2024-03-08T13:24:22;55.10;;;34.77;;
16977;SDS011;8605;52.548;4.918;2024-03-08T13:26:52;59.00;;;35.00;;
16977;SDS011;8605;52.548;4.918;2024-03-08T13:29:20;61.43;;;34.43;;
16977;SDS011;8605;52.548;4.918;2024-03-08T13:31:49;60.00;;;36.27;;
16977;SDS011;8605;52.548;4.918;2024-03-08T13:34:18;60.10;;;35.60;;
16977;SDS011;8605;52.548;4.918;2024-03-08T13:36:54;54.27;;;34.60;;
16977;SDS011;8605;52.548;4.918;2024-03-08T13:39:27;61.47;;;36.43;;
16977;SDS011;8605;52.548;4.918;2024-03-08T13:41:56;59.40;;;35.70;;
16977;SDS011;8605;52.548;4.918;2024-03-08T13:44:24;58.17;;;34.73;;
16977;SDS011;8605;52.548;4.918;2024-03-08T13:46:54;55.77;;;33.87;;
16977;SDS011;8605;52.548;4.918;2024-03-08T13:49:24;58.70;;;36.30;;
16977;SDS011;8605;52.548;4.918;2024-03-08T13:51:52;55.60;;;35.47;;
16977;SDS011;8605;52.548;4.918;2024-03-08T13:54:21;56.83;;;34.17;;
16977;SDS011;8605;52.548;4.918;2024-03-08T13:56:49;58.93;;;35.73;;
16977;SDS011;8605;52.548;4.918;2024-03-08T13:59:21;53.43;;;33.10;;
16977;SDS011;8605;52.548;4.918;2024-03-08T14:01:50;53.65;;;32.90;;
16977;SDS011;8605;52.548;4.918;2024-03-08T14:04:18;52.75;;;31.95;;
16977;SDS011;8605;52.548;4.918;2024-03-08T14:06:46;49.67;;;32.50;;
16977;SDS011;8605;52.548;4.918;2024-03-08T14:09:15;50.60;;;31.13;;
16977;SDS011;8605;52.548;4.918;2024-03-08T14:11:44;49.47;;;31.03;;
16977;SDS011;8605;52.548;4.918;2024-03-08T14:14:11;47.40;;;30.87;;
16977;SDS011;8605;52.548;4.918;2024-03-08T14:16:41;47.63;;;30.00;;
16977;SDS011;8605;52.548;4.918;2024-03-08T14:19:09;50.07;;;31.63;;
16977;SDS011;8605;52.548;4.918;2024-03-08T14:21:37;48.70;;;31.53;;
16977;SDS011;8605;52.548;4.918;2024-03-08T14:24:06;49.50;;;30.57;;
16977;SDS011;8605;52.548;4.918;2024-03-08T14:26:34;51.53;;;32.43;;
16977;SDS011;8605;52.548;4.918;2024-03-08T14:29:04;49.75;;;30.75;;
16977;SDS011;8605;52.548;4.918;2024-03-08T14:31:33;49.53;;;31.47;;
16977;SDS011;8605;52.548;4.918;2024-03-08T14:34:03;52.37;;;31.60;;
16977;SDS011;8605;52.548;4.918;2024-03-08T14:36:31;51.43;;;31.73;;
16977;SDS011;8605;52.548;4.918;2024-03-08T14:38:59;50.87;;;32.93;;
16977;SDS011;8605;52.548;4.918;2024-03-08T14:41:27;53.80;;;34.37;;
16977;SDS011;8605;52.548;4.918;2024-03-08T14:43:54;57.50;;;37.37;;
16977;SDS011;8605;52.548;4.918;2024-03-08T14:46:23;54.17;;;35.37;;